Time;durP1;ratioP1;P1;durP2;ratioP2;P2;SDS_P1;SDS_P2;PMS_P1;PMS_P2;Temp;Humidity;BMP_temperature;BMP_pressure;BME280_temperature;BME280_humidity;BME280_pressure;Samples;Min_cycle;Max_cycle;Signal;HPM_P1;HPM_P2
2021/09/06 00:02:04;;;;;;;4.13;2.03;;;13.10;99.90;;;;;;4974469;28;20051;-65
2021/09/06 00:04:33;;;;;;;2.50;1.10;;;13.10;99.90;;;;;;4972497;28;20054;-65
2021/09/06 00:07:00;;;;;;;2.53;1.30;;;13.20;99.90;;;;;;4974057;28;20113;-64
2021/09/06 00:09:27;;;;;;;1.55;1.45;;;13.20;99.90;;;;;;4974066;28;20078;-64
2021/09/06 00:11:54;;;;;;;1.98;1.45;;;13.20;99.90;;;;;;4972950;28;20065;-64
2021/09/06 00:14:22;;;;;;;1.52;1.13;;;13.20;99.90;;;;;;4972332;28;20400;-66
2021/09/06 00:16:49;;;;;;;1.17;1.08;;;13.30;99.90;;;;;;4973917;28;20074;-65
2021/09/06 00:19:17;;;;;;;2.40;2.20;;;13.30;99.90;;;;;;4973898;28;20120;-65
2021/09/06 00:21:43;;;;;;;5.07;1.48;;;13.30;99.90;;;;;;4974092;28;20058;-65
2021/09/06 00:24:11;;;;;;;3.60;1.25;;;13.30;99.90;;;;;;4974029;28;20102;-66
2021/09/06 00:26:39;;;;;;;4.15;1.95;;;13.30;99.90;;;;;;4972613;28;20043;-66
2021/09/06 00:29:06;;;;;;;1.40;1.20;;;13.40;99.90;;;;;;4972278;28;20059;-67
2021/09/06 00:31:33;;;;;;;2.80;1.60;;;13.40;99.90;;;;;;4972378;28;20097;-64
2021/09/06 00:34:00;;;;;;;4.07;1.48;;;13.40;99.90;;;;;;4973454;28;20051;-65
2021/09/06 00:36:27;;;;;;;0.95;0.90;;;13.40;99.90;;;;;;4971993;28;20049;-66
2021/09/06 00:38:54;;;;;;;19.00;1.30;;;13.40;99.90;;;;;;4973136;28;20495;-65
2021/09/06 00:41:24;;;;;;;3.70;1.50;;;13.40;99.90;;;;;;4972244;28;20051;-65
2021/09/06 00:43:52;;;;;;;4.25;1.65;;;13.40;99.90;;;;;;4973535;28;20474;-65
2021/09/06 00:46:20;;;;;;;1.52;1.42;;;13.50;99.90;;;;;;4971901;28;20046;-67
2021/09/06 00:48:47;;;;;;;1.75;0.98;;;13.50;99.90;;;;;;4973159;28;20141;-67
2021/09/06 00:51:14;;;;;;;3.13;1.42;;;13.50;99.90;;;;;;4973464;28;20062;-65
2021/09/06 00:53:42;;;;;;;2.80;1.20;;;13.50;99.90;;;;;;4973312;28;20059;-65
2021/09/06 00:56:09;;;;;;;3.03;2.03;;;13.50;99.90;;;;;;4972069;28;20053;-64
2021/09/06 00:58:37;;;;;;;2.78;1.08;;;13.50;99.90;;;;;;4971399;28;20461;-64
2021/09/06 01:01:04;;;;;;;2.03;1.80;;;13.50;99.90;;;;;;4973411;28;20082;-68
2021/09/06 01:03:32;;;;;;;2.17;1.25;;;13.50;99.90;;;;;;4999456;23;20053;-65
2021/09/06 01:06:12;;;;;;;5.07;1.30;;;13.50;99.90;;;;;;4991370;28;20062;-65
2021/09/06 01:08:57;;;;;;;1.90;1.48;;;13.50;99.90;;;;;;4984385;28;20062;-65
2021/09/06 01:11:41;;;;;;;2.55;1.70;;;13.60;99.90;;;;;;4991180;28;20195;-66
2021/09/06 01:14:34;;;;;;;3.05;2.17;;;13.50;99.90;;;;;;4986368;28;20049;-65
2021/09/06 01:17:01;;;;;;;2.53;1.50;;;13.50;99.90;;;;;;4990780;28;20060;-65
2021/09/06 01:19:29;;;;;;;2.38;1.40;;;13.60;99.90;;;;;;4974891;28;20540;-66
2021/09/06 01:21:57;;;;;;;10.50;2.05;;;13.60;99.90;;;;;;4991120;28;20100;-68
2021/09/06 01:24:53;;;;;;;14.45;2.17;;;13.60;99.90;;;;;;4937916;28;20138;-66
2021/09/06 01:27:21;;;;;;;4.47;1.70;;;13.70;99.90;;;;;;4991944;28;20047;-65
2021/09/06 01:29:48;;;;;;;3.70;1.60;;;13.70;99.90;;;;;;4974571;28;20054;-65
2021/09/06 01:32:18;;;;;;;;;;;13.70;99.90;;;;;;4989635;28;20046;-65
2021/09/06 01:34:47;;;;;;;2.55;1.67;;;13.70;99.90;;;;;;4990413;28;20345;-65
2021/09/06 01:37:15;;;;;;;3.45;2.08;;;13.70;99.90;;;;;;4974560;28;20054;-64
2021/09/06 01:39:49;;;;;;;1.95;1.60;;;13.70;99.90;;;;;;4990876;28;20073;-68
2021/09/06 01:42:16;;;;;;;2.88;1.77;;;13.70;99.90;;;;;;4988893;28;20077;-65
2021/09/06 01:44:44;;;;;;;3.75;1.50;;;13.70;99.90;;;;;;4990769;28;20477;-67
2021/09/06 01:47:16;;;;;;;2.55;1.98;;;13.70;99.90;;;;;;4974153;28;20050;-68
2021/09/06 01:49:42;;;;;;;2.63;1.85;;;13.80;99.90;;;;;;4991979;28;20046;-65
2021/09/06 01:52:10;;;;;;;6.30;1.70;;;13.80;99.90;;;;;;4990245;28;20536;-67
2021/09/06 01:54:37;;;;;;;2.80;1.67;;;13.80;99.90;;;;;;4989643;28;20066;-65
2021/09/06 01:57:07;;;;;;;7.28;2.13;;;13.90;99.90;;;;;;4990381;28;20058;-67
2021/09/06 01:59:34;;;;;;;3.20;1.98;;;13.90;99.90;;;;;;4990583;28;20094;-69
2021/09/06 02:02:01;;;;;;;2.25;1.40;;;13.90;99.90;;;;;;4990052;28;20518;-65
2021/09/06 02:04:36;;;;;;;3.88;1.58;;;13.90;99.90;;;;;;4970713;28;20440;-64
2021/09/06 02:07:03;;;;;;;2.80;1.83;;;13.90;99.90;;;;;;4991568;28;20047;-66
2021/09/06 02:09:30;;;;;;;4.47;2.20;;;13.90;99.90;;;;;;4990305;28;20046;-65
2021/09/06 02:11:57;;;;;;;1.95;1.77;;;13.90;99.90;;;;;;4991572;28;20073;-65
2021/09/06 02:14:24;;;;;;;2.10;1.50;;;13.90;99.90;;;;;;4989910;28;20050;-64
2021/09/06 02:16:51;;;;;;;3.25;1.60;;;13.90;99.90;;;;;;4990005;28;20047;-66
2021/09/06 02:19:38;;;;;;;1.65;1.48;;;13.90;99.90;;;;;;4990063;28;20046;-67
2021/09/06 02:22:05;;;;;;;1.98;1.55;;;13.90;99.90;;;;;;4973784;28;20054;-66
2021/09/06 02:24:54;;;;;;;2.28;1.27;;;13.90;99.90;;;;;;4982655;28;20054;-67
2021/09/06 02:27:26;;;;;;;1.88;1.35;;;13.90;99.90;;;;;;4974027;28;20081;-65
2021/09/06 02:29:55;;;;;;;3.33;1.77;;;13.90;99.90;;;;;;4990057;28;20061;-65
2021/09/06 02:32:25;;;;;;;3.40;1.33;;;13.90;99.90;;;;;;4988372;28;20141;-65
2021/09/06 02:35:18;;;;;;;1.83;1.23;;;13.90;99.90;;;;;;4987155;28;20418;-65
2021/09/06 02:37:45;;;;;;;3.17;1.85;;;13.80;99.90;;;;;;4989158;28;20078;-67
2021/09/06 02:40:16;;;;;;;4.35;1.20;;;13.80;99.90;;;;;;4988105;28;20054;-66
2021/09/06 02:42:46;;;;;;;4.22;2.35;;;13.80;99.90;;;;;;4989367;28;20078;-65
2021/09/06 02:45:14;;;;;;;3.00;1.10;;;13.80;99.90;;;;;;4990834;28;20054;-66
2021/09/06 02:47:47;;;;;;;4.35;1.65;;;13.80;99.90;;;;;;4989851;28;20477;-65
2021/09/06 02:50:16;;;;;;;;;;;13.80;99.90;;;;;;4972557;28;20468;-64
2021/09/06 02:52:43;;;;;;;3.42;1.80;;;13.80;99.90;;;;;;4989270;28;19928;-66
2021/09/06 02:55:13;;;;;;;1.92;1.83;;;13.80;99.90;;;;;;4973421;28;20068;-64
2021/09/06 02:57:44;;;;;;;5.10;2.33;;;13.80;99.90;;;;;;4973168;28;20046;-65
2021/09/06 03:00:11;;;;;;;2.05;1.77;;;13.80;99.90;;;;;;4989678;28;20153;-66
2021/09/06 03:02:39;;;;;;;9.70;2.20;;;13.80;99.90;;;;;;4987690;28;20393;-66
2021/09/06 03:05:08;;;;;;;1.90;1.17;;;13.80;99.90;;;;;;4989262;28;20134;-66
2021/09/06 03:07:41;;;;;;;1.65;1.40;;;13.80;99.90;;;;;;4973522;28;20097;-65
2021/09/06 03:10:09;;;;;;;2.55;1.55;;;13.90;99.90;;;;;;4990968;28;20053;-67
2021/09/06 03:12:36;;;;;;;2.53;1.65;;;13.90;99.90;;;;;;4987561;28;20046;-66
2021/09/06 03:15:05;;;;;;;3.53;1.75;;;13.80;99.90;;;;;;4990090;28;20552;-66
2021/09/06 03:17:32;;;;;;;2.80;1.80;;;13.80;99.90;;;;;;4973349;28;20077;-65
2021/09/06 03:20:00;;;;;;;6.30;1.70;;;13.80;99.90;;;;;;4989763;28;20073;-66
2021/09/06 03:22:29;;;;;;;2.60;1.77;;;13.90;99.90;;;;;;4971859;28;20066;-65
2021/09/06 03:24:56;;;;;;;1.98;1.60;;;13.80;99.90;;;;;;4990636;28;20439;-67
2021/09/06 03:27:23;;;;;;;3.75;1.77;;;13.80;99.90;;;;;;4989581;28;20050;-71
2021/09/06 03:29:50;;;;;;;1.88;1.40;;;13.80;99.90;;;;;;4990848;28;20054;-66
2021/09/06 03:32:18;;;;;;;2.53;1.73;;;13.80;99.90;;;;;;4989292;28;20130;-65
2021/09/06 03:34:45;;;;;;;3.03;1.73;;;13.70;99.90;;;;;;4989613;28;20054;-67
2021/09/06 03:37:12;;;;;;;2.47;2.03;;;13.70;99.90;;;;;;4990630;28;20054;-66
2021/09/06 03:39:39;;;;;;;3.13;1.35;;;13.70;99.90;;;;;;4990626;28;20047;-69
2021/09/06 03:42:07;;;;;;;1.50;1.40;;;13.70;99.90;;;;;;4990815;28;20506;-67
2021/09/06 03:44:40;;;;;;;1.80;1.33;;;13.60;99.90;;;;;;4971965;28;20046;-66
2021/09/06 03:47:07;;;;;;;2.58;1.27;;;13.60;99.90;;;;;;4992965;28;20420;-65
2021/09/06 03:49:34;;;;;;;2.03;1.67;;;13.60;99.90;;;;;;4994141;28;20082;-66
2021/09/06 03:52:03;;;;;;;1.55;1.13;;;13.70;99.90;;;;;;4976776;28;20054;-65
2021/09/06 03:54:30;;;;;;;4.63;2.40;;;13.70;99.90;;;;;;4974873;28;20396;-67
2021/09/06 03:56:57;;;;;;;2.30;1.38;;;13.70;99.90;;;;;;4992940;28;20400;-64
2021/09/06 03:59:24;;;;;;;3.13;1.50;;;13.70;99.90;;;;;;4992490;28;20468;-67
2021/09/06 04:01:52;;;;;;;6.03;2.22;;;13.80;99.90;;;;;;4992313;28;20078;-64
2021/09/06 04:04:22;;;;;;;2.10;1.63;;;13.80;99.90;;;;;;4990955;28;20391;-65
2021/09/06 04:06:49;;;;;;;3.00;1.90;;;13.80;99.90;;;;;;4992866;28;20116;-67
2021/09/06 04:09:23;;;;;;;2.13;1.63;;;13.80;99.90;;;;;;4976327;28;20050;-67
2021/09/06 04:11:50;;;;;;;2.35;1.58;;;13.80;99.90;;;;;;4993987;28;20050;-66
2021/09/06 04:14:21;;;;;;;2.85;2.00;;;13.80;99.90;;;;;;4991396;28;20058;-65
2021/09/06 04:16:51;;;;;;;2.67;2.08;;;13.80;99.90;;;;;;4976381;28;20050;-65
2021/09/06 04:19:18;;;;;;;3.78;2.13;;;13.90;99.90;;;;;;4960234;28;20046;-66
2021/09/06 04:21:46;;;;;;;3.33;1.95;;;13.90;99.90;;;;;;4992484;28;20481;-67
2021/09/06 04:24:13;;;;;;;4.20;2.35;;;13.90;99.90;;;;;;4990694;28;20100;-66
2021/09/06 04:26:40;;;;;;;3.40;1.67;;;13.80;99.90;;;;;;4992005;28;20050;-64
2021/09/06 04:29:08;;;;;;;4.97;1.55;;;13.90;99.90;;;;;;4992038;28;20062;-69
2021/09/06 04:31:36;;;;;;;2.05;1.77;;;13.90;99.90;;;;;;4991768;28;20500;-67
2021/09/06 04:34:03;;;;;;;4.97;2.20;;;13.90;99.90;;;;;;4992006;28;20042;-64
2021/09/06 04:36:31;;;;;;;2.25;2.05;;;13.90;99.90;;;;;;4990482;28;20071;-67
2021/09/06 04:38:59;;;;;;;2.95;1.77;;;13.90;99.90;;;;;;4991522;28;20073;-65
2021/09/06 04:41:26;;;;;;;3.13;2.50;;;13.90;99.90;;;;;;4975591;28;20054;-65
2021/09/06 04:43:54;;;;;;;2.80;2.28;;;13.90;99.90;;;;;;4991924;28;20050;-68
2021/09/06 04:46:23;;;;;;;3.90;2.25;;;14.00;99.90;;;;;;4990308;28;20054;-66
2021/09/06 04:48:51;;;;;;;3.35;1.90;;;14.00;99.90;;;;;;4967477;28;20109;-64
2021/09/06 04:51:19;;;;;;;3.83;2.13;;;14.00;99.90;;;;;;4991877;28;20070;-66
2021/09/06 04:53:47;;;;;;;3.65;1.85;;;14.00;99.90;;;;;;4975156;28;20081;-65
2021/09/06 04:56:19;;;;;;;3.63;1.30;;;14.00;99.90;;;;;;4990191;28;20472;-65
2021/09/06 04:58:47;;;;;;;;;;;14.00;99.90;;;;;;4992605;28;20389;-64
2021/09/06 05:01:14;;;;;;;3.92;2.30;;;14.00;99.90;;;;;;4991343;28;20008;-64
2021/09/06 05:03:43;;;;;;;3.20;2.25;;;14.00;99.90;;;;;;4992742;28;20054;-69
2021/09/06 05:06:10;;;;;;;5.07;3.47;;;14.00;99.90;;;;;;4975120;28;20410;-67
2021/09/06 05:08:38;;;;;;;3.00;2.25;;;14.00;99.90;;;;;;4989320;28;20117;-67
2021/09/06 05:11:05;;;;;;;3.47;2.05;;;14.00;99.90;;;;;;4990763;28;20089;-70
2021/09/06 05:13:33;;;;;;;2.65;2.45;;;14.10;99.90;;;;;;4991314;28;20069;-66
2021/09/06 05:16:00;;;;;;;1.80;1.70;;;14.10;99.90;;;;;;4990803;28;20101;-65
2021/09/06 05:18:28;;;;;;;3.50;2.20;;;14.10;99.90;;;;;;4972903;28;20097;-69
2021/09/06 05:20:58;;;;;;;2.30;1.95;;;14.20;99.90;;;;;;4991065;28;20112;-65
2021/09/06 05:23:25;;;;;;;3.53;1.75;;;14.20;99.90;;;;;;4990562;28;20054;-67
2021/09/06 05:25:53;;;;;;;2.78;1.52;;;14.20;99.90;;;;;;4991291;28;20050;-64
2021/09/06 05:28:25;;;;;;;3.17;1.88;;;14.20;99.90;;;;;;4970388;28;20134;-69
2021/09/06 05:30:52;;;;;;;5.93;1.98;;;14.30;99.90;;;;;;4983313;28;20510;-66
2021/09/06 05:33:20;;;;;;;2.72;2.05;;;14.30;99.90;;;;;;4974443;28;20451;-66
2021/09/06 05:35:49;;;;;;;6.18;2.30;;;14.30;99.90;;;;;;4974284;28;20077;-65
2021/09/06 05:38:16;;;;;;;2.20;2.00;;;14.30;99.90;;;;;;4989213;28;20054;-65
2021/09/06 05:41:02;;;;;;;3.80;2.47;;;14.40;99.90;;;;;;4992364;28;20057;-64
2021/09/06 05:43:29;;;;;;;4.32;1.58;;;14.40;99.90;;;;;;4990910;28;20060;-64
2021/09/06 05:45:56;;;;;;;5.75;2.53;;;14.40;99.90;;;;;;4974271;28;20182;-64
2021/09/06 05:48:24;;;;;;;4.70;2.25;;;14.50;99.90;;;;;;4988966;28;20068;-64
2021/09/06 05:50:51;;;;;;;3.15;2.05;;;14.50;99.90;;;;;;4974507;28;20052;-69
2021/09/06 05:53:36;;;;;;;3.95;1.98;;;14.50;99.90;;;;;;4992195;28;20057;-64
2021/09/06 05:56:06;;;;;;;;;;;14.60;99.90;;;;;;4991521;28;20085;-63
2021/09/06 05:58:33;;;;;;;2.25;1.83;;;14.60;99.90;;;;;;4989085;28;19952;-63
2021/09/06 06:01:01;;;;;;;4.00;1.95;;;14.70;99.90;;;;;;4990525;28;20097;-64
2021/09/06 06:03:33;;;;;;;2.88;1.95;;;14.70;99.90;;;;;;4990423;28;20050;-63
2021/09/06 06:06:02;;;;;;;5.28;2.17;;;14.70;99.90;;;;;;4990769;28;20460;-63
2021/09/06 06:08:29;;;;;;;5.43;2.13;;;14.70;99.90;;;;;;4989090;28;20077;-63
2021/09/06 06:10:57;;;;;;;2.58;2.38;;;14.70;99.90;;;;;;4989621;28;20078;-66
2021/09/06 06:13:24;;;;;;;4.57;2.10;;;14.70;99.90;;;;;;4991719;28;20105;-63
2021/09/06 06:15:51;;;;;;;3.55;2.53;;;14.70;99.90;;;;;;4966489;28;20374;-63
2021/09/06 06:18:34;;;;;;;1.80;1.45;;;14.80;99.90;;;;;;4988369;28;20062;-63
2021/09/06 06:21:03;;;;;;;2.10;1.83;;;14.80;99.90;;;;;;4974059;28;20137;-63
2021/09/06 06:23:45;;;;;;;7.72;2.10;;;14.80;99.90;;;;;;4991930;28;20046;-65
2021/09/06 06:26:24;;;;;;;5.32;2.60;;;14.90;99.90;;;;;;4972685;28;20052;-64
2021/09/06 06:28:52;;;;;;;4.28;2.33;;;14.90;99.90;;;;;;4966395;28;20492;-63
2021/09/06 06:31:19;;;;;;;2.70;1.67;;;14.90;99.90;;;;;;4973874;28;20070;-63
2021/09/06 06:33:47;;;;;;;5.38;1.90;;;14.90;99.90;;;;;;4972826;28;20412;-65
2021/09/06 06:36:14;;;;;;;4.20;2.47;;;14.90;99.90;;;;;;4987882;28;20057;-64
2021/09/06 06:38:42;;;;;;;4.55;2.25;;;14.90;99.90;;;;;;4990611;28;20137;-63
2021/09/06 06:41:09;;;;;;;2.13;1.60;;;15.00;99.90;;;;;;4973546;28;20046;-63
2021/09/06 06:43:45;;;;;;;7.68;2.00;;;15.00;99.90;;;;;;4989692;28;20376;-65
2021/09/06 06:46:14;;;;;;;3.10;2.17;;;15.10;99.90;;;;;;4988358;28;20050;-63
2021/09/06 06:48:41;;;;;;;2.67;1.90;;;15.20;99.90;;;;;;4991198;28;20054;-64
2021/09/06 06:51:18;;;;;;;1.65;1.55;;;15.20;99.90;;;;;;4973742;28;20057;-64
2021/09/06 06:53:46;;;;;;;3.10;1.98;;;15.30;99.90;;;;;;4973340;28;20058;-64
2021/09/06 06:56:15;;;;;;;6.10;1.93;;;15.20;99.90;;;;;;4987941;28;20050;-64
2021/09/06 06:58:42;;;;;;;2.58;1.52;;;15.30;99.90;;;;;;4990806;28;20192;-64
2021/09/06 07:01:13;;;;;;;2.47;1.70;;;15.40;99.90;;;;;;4973175;28;20096;-64
2021/09/06 07:03:44;;;;;;;2.72;1.35;;;15.40;99.90;;;;;;4989380;28;20046;-65
2021/09/06 07:06:12;;;;;;;4.57;2.10;;;15.50;99.90;;;;;;4973266;28;20394;-64
2021/09/06 07:08:40;;;;;;;2.30;1.40;;;15.50;99.90;;;;;;4972217;28;20053;-65
2021/09/06 07:11:07;;;;;;;2.05;1.48;;;15.50;99.90;;;;;;4989425;28;20473;-65
2021/09/06 07:13:35;;;;;;;1.75;1.63;;;15.50;99.90;;;;;;4973425;28;20078;-66
2021/09/06 07:16:04;;;;;;;3.08;1.95;;;15.50;99.90;;;;;;4973085;28;20477;-64
2021/09/06 07:18:31;;;;;;;3.50;1.58;;;15.40;99.90;;;;;;4987951;28;20506;-65
2021/09/06 07:21:00;;;;;;;3.30;1.70;;;15.50;99.90;;;;;;4974034;28;20104;-64
2021/09/06 07:23:28;;;;;;;3.67;1.85;;;15.50;99.90;;;;;;4976258;28;20050;-64
2021/09/06 07:25:56;;;;;;;2.95;2.03;;;15.50;99.90;;;;;;4993383;28;20054;-65
2021/09/06 07:28:24;;;;;;;1.60;1.25;;;15.50;99.90;;;;;;4975591;28;20400;-64
2021/09/06 07:30:53;;;;;;;1.88;1.75;;;15.60;99.90;;;;;;4993238;28;20061;-65
2021/09/06 07:33:21;;;;;;;3.03;1.83;;;15.70;99.90;;;;;;4977100;28;20049;-64
2021/09/06 07:35:48;;;;;;;5.32;2.03;;;15.80;99.90;;;;;;4994381;28;20053;-65
2021/09/06 07:38:17;;;;;;;4.82;2.25;;;15.80;99.90;;;;;;4991579;28;20109;-67
2021/09/06 07:40:44;;;;;;;3.72;1.88;;;15.90;99.90;;;;;;4994455;28;20042;-64
2021/09/06 07:43:11;;;;;;;2.67;1.85;;;16.00;99.90;;;;;;4993273;28;20431;-65
2021/09/06 07:45:38;;;;;;;2.97;1.95;;;16.00;99.90;;;;;;4992766;28;20046;-66
2021/09/06 07:48:06;;;;;;;5.03;1.95;;;16.00;99.90;;;;;;4976701;28;20559;-67
2021/09/06 07:50:40;;;;;;;5.43;1.25;;;16.00;99.90;;;;;;4975598;28;20054;-64
2021/09/06 07:53:07;;;;;;;1.50;1.33;;;16.10;99.90;;;;;;4976292;28;20160;-64
2021/09/06 07:55:34;;;;;;;6.80;2.55;;;16.10;99.90;;;;;;4992960;28;20066;-68
2021/09/06 07:58:01;;;;;;;3.15;1.85;;;16.10;99.90;;;;;;4993142;28;20077;-63
2021/09/06 08:00:29;;;;;;;4.03;2.42;;;16.20;99.90;;;;;;4990998;28;20136;-64
2021/09/06 08:02:56;;;;;;;2.65;2.05;;;16.10;99.90;;;;;;4976185;28;20050;-64
2021/09/06 08:05:29;;;;;;;2.75;1.70;;;16.10;99.90;;;;;;4993740;28;20058;-64
2021/09/06 08:08:04;;;;;;;3.58;2.08;;;16.10;99.90;;;;;;4976475;28;20054;-64
2021/09/06 08:10:32;;;;;;;2.85;1.98;;;16.20;99.90;;;;;;4974477;28;20054;-66
2021/09/06 08:13:00;;;;;;;5.40;1.92;;;16.20;99.90;;;;;;4976174;28;20046;-67
2021/09/06 08:15:29;;;;;;;1.77;1.10;;;16.30;99.90;;;;;;4975988;28;20050;-64
2021/09/06 08:18:00;;;;;;;7.85;1.77;;;16.30;99.90;;;;;;4973194;28;20055;-66
2021/09/06 08:20:28;;;;;;;4.13;1.92;;;16.20;99.90;;;;;;4972032;28;20042;-65
2021/09/06 08:22:56;;;;;;;4.28;2.08;;;16.30;99.90;;;;;;4992816;28;20058;-65
2021/09/06 08:25:23;;;;;;;2.22;1.45;;;16.30;99.90;;;;;;4993019;28;20447;-65
2021/09/06 08:27:50;;;;;;;3.70;1.40;;;16.30;99.90;;;;;;4976655;28;20050;-65
2021/09/06 08:30:18;;;;;;;3.50;1.65;;;16.20;99.90;;;;;;4975075;28;20046;-65
2021/09/06 08:32:48;;;;;;;4.63;1.33;;;16.20;99.90;;;;;;4991605;28;20104;-65
2021/09/06 08:35:16;;;;;;;2.50;1.25;;;16.20;99.90;;;;;;4975674;28;20272;-65
2021/09/06 08:37:43;;;;;;;3.38;1.77;;;16.20;99.90;;;;;;4976020;28;20043;-64
2021/09/06 08:40:12;;;;;;;2.63;1.55;;;16.30;99.90;;;;;;4976177;28;20042;-68
2021/09/06 08:42:40;;;;;;;2.20;1.58;;;16.20;99.90;;;;;;4974352;28;20038;-65
2021/09/06 08:45:10;;;;;;;3.95;1.73;;;16.20;99.90;;;;;;4975821;28;20042;-65
2021/09/06 08:47:39;;;;;;;3.75;1.88;;;16.20;99.90;;;;;;4975807;28;20050;-65
2021/09/06 08:50:09;;;;;;;3.95;2.05;;;16.20;99.90;;;;;;4975585;28;20054;-64
2021/09/06 08:52:39;;;;;;;3.83;2.05;;;16.10;99.90;;;;;;4974323;28;20050;-65
2021/09/06 08:55:07;;;;;;;3.47;1.50;;;16.10;99.90;;;;;;4975789;28;20437;-65
2021/09/06 08:57:36;;;;;;;2.05;1.33;;;16.10;99.90;;;;;;4993040;28;20089;-64
2021/09/06 09:00:05;;;;;;;2.15;1.77;;;16.10;99.90;;;;;;4975597;28;20559;-64
2021/09/06 09:02:46;;;;;;;2.63;2.08;;;16.20;99.90;;;;;;4973707;28;20121;-64
2021/09/06 09:05:27;;;;;;;;;;;16.20;99.90;;;;;;4992053;28;20050;-64
2021/09/06 09:08:29;;;;;;;2.05;1.33;;;16.20;99.90;;;;;;4930848;29;19923;-64
2021/09/06 09:11:06;;;;;;;1.20;0.98;;;16.20;99.90;;;;;;4966292;28;20046;-65
2021/09/06 09:13:53;;;;;;;1.90;1.10;;;16.20;99.90;;;;;;4992453;28;20050;-66
2021/09/06 09:16:54;;;;;;;1.40;1.13;;;16.20;99.90;;;;;;4971720;28;20069;-64
2021/09/06 09:19:40;;;;;;;2.35;1.35;;;16.20;99.90;;;;;;4992077;28;20053;-67
2021/09/06 09:22:35;;;;;;;2.53;1.60;;;16.20;99.90;;;;;;4973436;28;20484;-64
2021/09/06 09:25:22;;;;;;;1.60;1.40;;;16.20;99.90;;;;;;4985086;28;20468;-65
2021/09/06 09:28:09;;;;;;;2.40;1.00;;;16.30;99.90;;;;;;4986455;28;20412;-65
2021/09/06 09:31:07;;;;;;;1.52;1.27;;;16.30;99.90;;;;;;4991367;28;20051;-65
2021/09/06 09:33:53;;;;;;;;;;;16.50;99.90;;;;;;4967698;28;20404;-66
2021/09/06 09:36:27;;;;;;;1.75;1.13;;;16.60;99.90;;;;;;4973629;28;20032;-65
2021/09/06 09:39:13;;;;;;;1.73;1.27;;;16.70;99.90;;;;;;4992041;28;20200;-65
2021/09/06 09:41:46;;;;;;;1.33;1.13;;;16.70;99.90;;;;;;4992489;28;20053;-64
2021/09/06 09:44:22;;;;;;;1.48;0.80;;;16.70;99.90;;;;;;4990959;28;20436;-65
2021/09/06 09:47:06;;;;;;;1.42;1.20;;;16.80;99.90;;;;;;4969072;28;20050;-64
2021/09/06 09:49:34;;;;;;;1.58;1.23;;;16.80;99.90;;;;;;4992168;28;20121;-65
2021/09/06 09:52:03;;;;;;;4.15;1.10;;;16.90;99.90;;;;;;4991767;28;20050;-64
2021/09/06 09:54:31;;;;;;;1.48;1.15;;;16.90;99.90;;;;;;4990675;28;20057;-64
2021/09/06 09:56:59;;;;;;;2.35;1.13;;;16.90;99.90;;;;;;4991676;28;20498;-66
2021/09/06 09:59:27;;;;;;;1.42;1.30;;;17.00;99.90;;;;;;4991818;28;20133;-65
2021/09/06 10:02:10;;;;;;;3.03;1.33;;;17.00;99.90;;;;;;4991841;28;20050;-65
2021/09/06 10:04:46;;;;;;;1.98;1.27;;;17.00;99.90;;;;;;4990558;28;20137;-65
2021/09/06 10:07:16;;;;;;;2.03;1.42;;;17.00;99.90;;;;;;4991952;28;20062;-65
2021/09/06 10:09:45;;;;;;;1.45;1.20;;;17.00;99.90;;;;;;4991315;28;20117;-65
2021/09/06 10:12:18;;;;;;;2.05;1.77;;;17.00;99.90;;;;;;4991699;28;20400;-66
2021/09/06 10:15:01;;;;;;;2.63;1.20;;;17.10;99.90;;;;;;4990126;28;20539;-65
2021/09/06 10:17:47;;;;;;;2.47;1.10;;;17.10;99.90;;;;;;4991475;28;20054;-65
2021/09/06 10:20:17;;;;;;;2.17;1.45;;;17.10;99.90;;;;;;4990294;28;20046;-64
2021/09/06 10:23:00;;;;;;;4.45;1.42;;;17.10;99.90;;;;;;4991523;28;20105;-65
2021/09/06 10:25:31;;;;;;;3.08;1.00;;;16.90;99.90;;;;;;4991110;28;20069;-65
2021/09/06 10:28:03;;;;;;;2.50;1.33;;;16.90;99.90;;;;;;4991432;28;20469;-64
2021/09/06 10:30:50;;;;;;;4.88;1.25;;;16.80;99.90;;;;;;4989940;28;20061;-66
2021/09/06 10:33:37;;;;;;;2.13;1.00;;;16.80;99.90;;;;;;4990926;28;20050;-64
2021/09/06 10:36:12;;;;;;;2.78;1.63;;;16.80;99.90;;;;;;4991820;28;20438;-64
2021/09/06 10:38:41;;;;;;;2.38;1.15;;;16.70;99.90;;;;;;4990005;28;20046;-64
2021/09/06 10:41:21;;;;;;;1.15;0.80;;;16.60;99.90;;;;;;4992108;28;20046;-65
2021/09/06 10:44:08;;;;;;;3.10;1.10;;;16.60;99.90;;;;;;4993168;28;20058;-64
2021/09/06 10:46:35;;;;;;;4.22;2.10;;;16.60;99.90;;;;;;4989365;28;20046;-65
2021/09/06 10:49:05;;;;;;;2.35;1.15;;;16.60;99.90;;;;;;4991439;28;20203;-64
2021/09/06 10:51:37;;;;;;;1.65;1.35;;;16.70;99.90;;;;;;4991538;28;20054;-64
2021/09/06 10:54:08;;;;;;;2.43;1.10;;;16.60;99.90;;;;;;4991193;28;20053;-65
2021/09/06 10:56:37;;;;;;;4.20;1.73;;;16.60;99.90;;;;;;4991841;28;20042;-65
2021/09/06 10:59:05;;;;;;;1.60;1.50;;;16.60;99.90;;;;;;4994697;28;20515;-66
2021/09/06 11:01:32;;;;;;;3.30;1.38;;;16.60;99.90;;;;;;4994845;28;20096;-66
2021/09/06 11:04:01;;;;;;;1.83;1.25;;;16.60;99.90;;;;;;4995271;28;20051;-65
2021/09/06 11:06:30;;;;;;;2.63;1.13;;;16.60;99.90;;;;;;4993752;28;20104;-64
2021/09/06 11:09:00;;;;;;;;;;;16.70;99.90;;;;;;4995448;28;20050;-65
2021/09/06 11:11:30;;;;;;;3.72;1.45;;;16.80;99.90;;;;;;4994866;28;20024;-65
2021/09/06 11:14:00;;;;;;;2.15;1.10;;;16.70;99.90;;;;;;4994732;28;20126;-67
2021/09/06 11:16:43;;;;;;;1.42;0.90;;;16.70;99.90;;;;;;4992896;28;20381;-65
2021/09/06 11:19:15;;;;;;;3.17;1.50;;;16.80;99.90;;;;;;4994846;28;20077;-67
2021/09/06 11:21:43;;;;;;;1.75;1.25;;;16.90;99.90;;;;;;4994516;28;20054;-64
2021/09/06 11:24:12;;;;;;;1.75;1.30;;;17.00;99.90;;;;;;4994507;28;20050;-66
2021/09/06 11:26:42;;;;;;;1.40;1.10;;;17.00;99.90;;;;;;4993090;28;20548;-64
2021/09/06 11:29:11;;;;;;;2.30;1.38;;;17.20;99.90;;;;;;4994790;28;20050;-65
2021/09/06 11:31:39;;;;;;;1.42;1.02;;;17.30;99.90;;;;;;4994162;28;20043;-65
2021/09/06 11:34:06;;;;;;;1.98;1.30;;;17.40;99.90;;;;;;4997338;28;20056;-66
2021/09/06 11:36:34;;;;;;;2.50;1.42;;;17.40;99.90;;;;;;4994081;28;20529;-65
2021/09/06 11:39:06;;;;;;;1.73;1.20;;;17.40;99.90;;;;;;4994143;28;20051;-65
2021/09/06 11:41:36;;;;;;;4.07;1.33;;;17.40;99.90;;;;;;4994224;28;20065;-64
2021/09/06 11:44:06;;;;;;;5.25;1.55;;;17.50;99.90;;;;;;4994318;28;20046;-64
2021/09/06 11:46:33;;;;;;;5.85;1.55;;;17.60;99.90;;;;;;4992520;28;20054;-64
2021/09/06 11:49:01;;;;;;;4.80;1.13;;;17.70;99.90;;;;;;4994398;28;20457;-66
2021/09/06 11:51:28;;;;;;;3.15;1.35;;;17.50;99.90;;;;;;4994192;28;20050;-68
2021/09/06 11:53:57;;;;;;;2.40;1.02;;;17.40;99.90;;;;;;4993998;28;20054;-64
2021/09/06 11:56:25;;;;;;;5.70;2.03;;;17.40;99.90;;;;;;4992724;28;20046;-64
2021/09/06 11:58:56;;;;;;;2.70;1.00;;;17.50;99.90;;;;;;4993644;28;20433;-65
2021/09/06 12:01:23;;;;;;;1.13;0.80;;;17.40;99.90;;;;;;4993996;28;20491;-65
2021/09/06 12:03:51;;;;;;;2.17;1.17;;;17.60;99.90;;;;;;4986194;28;20046;-64
2021/09/06 12:06:23;;;;;;;2.50;0.88;;;17.60;99.90;;;;;;4992683;28;20064;-68
2021/09/06 12:08:52;;;;;;;1.85;1.30;;;17.70;99.90;;;;;;4994195;28;20465;-65
2021/09/06 12:11:41;;;;;;;2.88;0.90;;;17.60;99.90;;;;;;4994079;28;20141;-64
2021/09/06 12:14:09;;;;;;;2.53;1.27;;;17.60;99.90;;;;;;4993712;28;20046;-66
2021/09/06 12:16:38;;;;;;;1.33;1.00;;;17.60;99.90;;;;;;4992327;28;20055;-65
2021/09/06 12:19:17;;;;;;;1.63;0.90;;;17.50;99.90;;;;;;4993687;28;20050;-68
2021/09/06 12:21:45;;;;;;;2.03;1.20;;;17.50;99.90;;;;;;4993865;28;20378;-65
2021/09/06 12:24:12;;;;;;;0.88;0.77;;;17.50;99.90;;;;;;4993948;28;20050;-69
2021/09/06 12:26:42;;;;;;;2.08;1.00;;;17.60;99.90;;;;;;4992123;28;20073;-65
2021/09/06 12:29:10;;;;;;;1.60;1.33;;;17.60;99.90;;;;;;4993828;28;20101;-65
2021/09/06 12:31:43;;;;;;;1.50;1.10;;;17.50;99.90;;;;;;4993536;28;20074;-65
2021/09/06 12:34:13;;;;;;;3.30;1.25;;;17.60;99.90;;;;;;4993698;28;20055;-68
2021/09/06 12:36:41;;;;;;;3.42;1.55;;;17.60;99.90;;;;;;4992179;28;20208;-66
2021/09/06 12:39:08;;;;;;;1.63;1.27;;;17.60;99.90;;;;;;4993749;28;20050;-67
2021/09/06 12:41:35;;;;;;;1.35;0.80;;;17.40;99.90;;;;;;4993274;28;20496;-65
2021/09/06 12:44:02;;;;;;;1.75;1.42;;;17.50;99.90;;;;;;4993576;28;20101;-65
2021/09/06 12:46:29;;;;;;;1.60;1.33;;;17.50;99.90;;;;;;4991761;28;20046;-64
2021/09/06 12:48:56;;;;;;;2.33;1.42;;;17.60;99.90;;;;;;4993210;28;20057;-65
2021/09/06 12:51:24;;;;;;;4.15;0.90;;;17.70;99.90;;;;;;4993027;28;20484;-66
2021/09/06 12:53:51;;;;;;;2.40;1.00;;;17.80;99.90;;;;;;4993011;28;20117;-65
2021/09/06 12:56:18;;;;;;;3.25;1.33;;;17.80;99.90;;;;;;4991538;28;20427;-65
2021/09/06 12:58:45;;;;;;;2.95;1.33;;;17.80;99.90;;;;;;4992935;28;20060;-66
2021/09/06 13:01:12;;;;;;;1.92;0.82;;;17.80;99.90;;;;;;4992678;28;20087;-68
2021/09/06 13:03:39;;;;;;;2.60;1.38;;;18.00;99.90;;;;;;4992830;28;20076;-64
2021/09/06 13:06:06;;;;;;;3.10;1.50;;;18.00;99.90;;;;;;4992736;28;20077;-65